This is the latest recevied weather packets stored in our database for station/object OH2HCY-3. If no packets are shown the sender has not sent any weather packets the latest 10 day(s).
| Time | Temp. | Humidity | Pressure | Rain* | Wind** | Luminosity | Snow |
|---|---|---|---|---|---|---|---|
| 1787780657 | 10° C | 88% | 1026.9 hPa | - | - | - | - |
| 1787779609 | 10° C | 88% | 1026.8 hPa | - | - | - | - |
| 1787778523 | 10° C | 87% | 1026.7 hPa | - | - | - | - |
| 1787777440 | 10.56° C | 87% | 1026.6 hPa | - | - | - | - |
| 1787776317 | 10.56° C | 86% | 1026.4 hPa | - | - | - | - |
| 1787775308 | 10.56° C | 81% | - | - | - | - | - |
| 1787775307 | 10.56° C | 86% | 1026.4 hPa | - | - | - | - |
| 1787774171 | 11.11° C | 85% | 1026.4 hPa | - | - | - | - |
| 1787774167 | 11.11° C | 85% | 1026.4 hPa | - | - | - | - |
| 1787773023 | 11.67° C | 83% | 1026.4 hPa | - | - | - | - |
| 1787771881 | 11.67° C | 82% | 1026.3 hPa | - | - | - | - |
| 1787770793 | 12.22° C | 80% | 1026.2 hPa | - | - | - | - |
| 1787769620 | 12.78° C | 79% | 1026.1 hPa | - | - | - | - |
| 1787768562 | 13.33° C | 77% | 1026 hPa | - | - | - | - |
| 1787767538 | 14.44° C | 75% | 1025.9 hPa | - | - | - | - |
| 1787766357 | 15° C | 73% | 1025.7 hPa | - | - | - | - |
| 1787765204 | 16.11° C | 68% | 1025.7 hPa | - | - | - | - |
| 1787764102 | 17.22° C | 64% | 1025.6 hPa | - | - | - | - |
| 1787762979 | 18.33° C | 63% | 1025.5 hPa | - | - | - | - |
| 1787762978 | 18.33° C | 63% | 1025.5 hPa | - | - | - | - |
| 1787761917 | 18.89° C | 55% | 1025.4 hPa | - | - | - | - |
| 1787761912 | 18.89° C | 55% | 1025.4 hPa | - | - | - | - |
| 1787760788 | 19.44° C | 55% | 1025.3 hPa | - | - | - | - |
| 1787759802 | 20° C | 51% | 1025.3 hPa | - | - | - | - |
| 1787758676 | 20.56° C | 49% | 1025.3 hPa | - | - | - | - |
* Rain since midnight (hover to see other rain measurements)
** Current wind speed in m/s (hover to see current wind gust speed)